Time;durP1;ratioP1;P1;durP2;ratioP2;P2;SDS_P1;SDS_P2;PMS_P1;PMS_P2;Temp;Humidity;BMP_temperature;BMP_pressure;BME280_temperature;BME280_humidity;BME280_pressure;Samples;Min_cycle;Max_cycle;Signal;HPM_P1;HPM_P2
2021/08/11 00:01:56;;;;;;;9.38;4.25;;;;;;;;;;5015544;28;20014;-74
2021/08/11 00:04:21;;;;;;;7.30;3.92;;;;;;;;;;4997942;28;20092;-73
2021/08/11 00:06:47;;;;;;;12.80;4.53;;;;;;;;;;5015215;28;20054;-73
2021/08/11 00:09:13;;;;;;;6.80;3.40;;;;;;;;;;5015605;28;20034;-72
2021/08/11 00:11:38;;;;;;;9.55;4.00;;;;;;;;;;4997716;28;20041;-70
2021/08/11 00:14:03;;;;;;;7.32;4.47;;;;;;;;;;5015453;28;20025;-74
2021/08/11 00:16:29;;;;;;;6.68;3.58;;;;;;;;;;5014669;28;20072;-71
2021/08/11 00:18:54;;;;;;;7.55;4.63;;;;;;;;;;5015354;28;20097;-71
2021/08/11 00:21:20;;;;;;;11.23;3.85;;;;;;;;;;5015505;28;20022;-73
2021/08/11 00:23:46;;;;;;;21.67;4.28;;;;;;;;;;5015082;28;20066;-71
2021/08/11 00:26:11;;;;;;;9.70;5.47;;;;;;;;;;5015076;28;20064;-73
2021/08/11 00:28:37;;;;;;;11.70;5.07;;;;;;;;;;5015197;28;20021;-71
2021/08/11 00:31:02;;;;;;;8.80;4.20;;;;;;;;;;5014889;28;20017;-71
2021/08/11 00:33:28;;;;;;;8.98;4.75;;;;;;;;;;5015108;28;20033;-73
2021/08/11 00:35:53;;;;;;;6.85;3.90;;;;;;;;;;5015162;28;20045;-72
2021/08/11 00:38:20;;;;;;;9.20;4.65;;;;;;;;;;5014705;28;20025;-72
2021/08/11 00:40:46;;;;;;;7.80;4.40;;;;;;;;;;5014681;28;20026;-71
2021/08/11 00:43:12;;;;;;;8.15;4.13;;;;;;;;;;5015101;28;20022;-72
2021/08/11 00:45:38;;;;;;;8.65;4.10;;;;;;;;;;5014682;28;20497;-71
2021/08/11 00:48:04;;;;;;;7.18;4.82;;;;;;;;;;5014744;28;20014;-71
2021/08/11 00:50:30;;;;;;;13.20;5.18;;;;;;;;;;5014686;28;20037;-71
2021/08/11 00:52:56;;;;;;;5.75;3.95;;;;;;;;;;5014378;28;20026;-71
2021/08/11 00:55:22;;;;;;;6.72;4.30;;;;;;;;;;5014833;28;20025;-72
2021/08/11 00:57:49;;;;;;;8.82;4.30;;;;;;;;;;5014420;28;20025;-72
2021/08/11 01:00:17;;;;;;;9.27;4.60;;;;;;;;;;5014492;28;20017;-74
2021/08/11 01:02:43;;;;;;;13.30;4.55;;;;;;;;;;5014101;28;20129;-71
2021/08/11 01:05:09;;;;;;;12.23;4.38;;;;;;;;;;5014370;28;20014;-72
2021/08/11 01:07:35;;;;;;;9.25;4.28;;;;;;;;;;5014357;28;20021;-70
2021/08/11 01:10:02;;;;;;;11.18;4.47;;;;;;;;;;5014231;28;20022;-72
2021/08/11 01:12:28;;;;;;;9.80;4.30;;;;;;;;;;5014166;28;20017;-72
2021/08/11 01:14:54;;;;;;;11.48;4.63;;;;;;;;;;4996812;28;20032;-71
2021/08/11 01:17:20;;;;;;;9.75;4.28;;;;;;;;;;5014178;28;20026;-70
2021/08/11 01:19:46;;;;;;;10.88;4.63;;;;;;;;;;4996560;28;20034;-72
2021/08/11 01:22:15;;;;;;;8.45;4.38;;;;;;;;;;5013894;28;20018;-71
2021/08/11 01:24:47;;;;;;;11.10;4.60;;;;;;;;;;4996766;28;20022;-70
2021/08/11 01:27:31;;;;;;;9.57;4.68;;;;;;;;;;5013108;28;20562;-72
2021/08/11 01:30:07;;;;;;;10.48;4.35;;;;;;;;;;5013836;28;20049;-73
2021/08/11 01:32:51;;;;;;;7.97;4.07;;;;;;;;;;5013947;28;20064;-74
2021/08/11 01:35:18;;;;;;;9.90;4.57;;;;;;;;;;5014051;28;20045;-72
2021/08/11 01:37:44;;;;;;;8.43;4.20;;;;;;;;;;5013839;28;20018;-71
2021/08/11 01:40:11;;;;;;;7.00;4.25;;;;;;;;;;5013616;28;20018;-72
2021/08/11 01:42:40;;;;;;;7.88;4.45;;;;;;;;;;5013835;28;20025;-73
2021/08/11 01:45:13;;;;;;;6.75;4.45;;;;;;;;;;5013786;28;20018;-71
2021/08/11 01:47:41;;;;;;;9.20;4.30;;;;;;;;;;4996154;28;20068;-71
2021/08/11 01:50:08;;;;;;;6.75;4.38;;;;;;;;;;5013407;28;20196;-72
2021/08/11 01:52:39;;;;;;;6.95;4.13;;;;;;;;;;5013781;28;20018;-70
2021/08/11 01:55:05;;;;;;;6.72;3.83;;;;;;;;;;5013678;28;20018;-71
2021/08/11 01:57:31;;;;;;;10.10;4.10;;;;;;;;;;5013751;28;20044;-72
2021/08/11 01:59:57;;;;;;;7.47;3.83;;;;;;;;;;5013399;28;20018;-72
2021/08/11 02:02:23;;;;;;;7.10;4.28;;;;;;;;;;4995623;28;20064;-72
2021/08/11 02:04:49;;;;;;;5.72;3.75;;;;;;;;;;5013357;28;20445;-72
2021/08/11 02:07:14;;;;;;;7.45;3.72;;;;;;;;;;5013548;28;20524;-72
2021/08/11 02:09:40;;;;;;;11.65;3.92;;;;;;;;;;5013490;28;20025;-74
2021/08/11 02:12:06;;;;;;;7.13;3.67;;;;;;;;;;5013043;28;20022;-74
2021/08/11 02:14:31;;;;;;;14.45;4.38;;;;;;;;;;5013203;28;20096;-73
2021/08/11 02:17:04;;;;;;;6.47;3.78;;;;;;;;;;5013297;28;20025;-72
2021/08/11 02:19:40;;;;;;;10.10;4.30;;;;;;;;;;5013226;28;20073;-73
2021/08/11 02:22:15;;;;;;;9.13;3.95;;;;;;;;;;5013314;28;20386;-73
2021/08/11 02:24:52;;;;;;;10.05;3.65;;;;;;;;;;5013214;28;20030;-71
2021/08/11 02:27:28;;;;;;;7.45;3.50;;;;;;;;;;4994830;28;20061;-73
2021/08/11 02:30:08;;;;;;;11.40;4.35;;;;;;;;;;5013298;28;20018;-72
2021/08/11 02:32:37;;;;;;;10.43;3.72;;;;;;;;;;5013050;28;20033;-73
2021/08/11 02:35:06;;;;;;;6.13;3.72;;;;;;;;;;4995457;28;20470;-72
2021/08/11 02:37:31;;;;;;;;;;;;;;;;;;5013368;28;20471;-72
2021/08/11 02:40:07;;;;;;;9.10;3.60;;;;;;;;;;5016346;28;19916;-72
2021/08/11 02:42:40;;;;;;;8.18;3.83;;;;;;;;;;4999320;28;20107;-72
2021/08/11 02:45:07;;;;;;;10.35;3.63;;;;;;;;;;5017112;28;20014;-73
2021/08/11 02:47:35;;;;;;;10.18;3.95;;;;;;;;;;5017106;28;20021;-72
2021/08/11 02:50:00;;;;;;;10.48;4.03;;;;;;;;;;5016794;28;20486;-73
2021/08/11 02:52:26;;;;;;;9.48;3.95;;;;;;;;;;4998957;28;20123;-73
2021/08/11 02:54:52;;;;;;;9.15;4.03;;;;;;;;;;5016882;28;20506;-74
2021/08/11 02:57:18;;;;;;;5.80;3.70;;;;;;;;;;5015826;28;20129;-72
2021/08/11 02:59:44;;;;;;;9.07;3.90;;;;;;;;;;5016753;28;20568;-74
2021/08/11 03:02:09;;;;;;;7.22;4.25;;;;;;;;;;5016531;28;20434;-71
2021/08/11 03:04:35;;;;;;;7.95;3.90;;;;;;;;;;5016289;28;20061;-73
2021/08/11 03:07:00;;;;;;;10.52;4.38;;;;;;;;;;5016591;28;20117;-72
2021/08/11 03:09:26;;;;;;;11.20;3.95;;;;;;;;;;5016754;28;20021;-73
2021/08/11 03:11:52;;;;;;;10.05;4.32;;;;;;;;;;5016396;28;20386;-73
2021/08/11 03:14:17;;;;;;;7.10;4.10;;;;;;;;;;5016585;28;20088;-72
2021/08/11 03:16:42;;;;;;;9.55;3.88;;;;;;;;;;5016416;28;20022;-74
2021/08/11 03:19:08;;;;;;;9.02;5.10;;;;;;;;;;5016465;28;20017;-71
2021/08/11 03:21:34;;;;;;;8.27;4.10;;;;;;;;;;5016380;28;20017;-73
2021/08/11 03:24:00;;;;;;;7.82;4.45;;;;;;;;;;5016124;28;20079;-72
2021/08/11 03:26:26;;;;;;;8.18;4.15;;;;;;;;;;5016166;28;20022;-72
2021/08/11 03:28:53;;;;;;;8.52;4.53;;;;;;;;;;5016234;28;20025;-71
2021/08/11 03:31:18;;;;;;;8.65;4.57;;;;;;;;;;5016314;28;20034;-73
2021/08/11 03:33:43;;;;;;;5.97;3.60;;;;;;;;;;5016011;28;20030;-73
2021/08/11 03:36:09;;;;;;;6.68;4.13;;;;;;;;;;5015899;28;20022;-73
2021/08/11 03:38:36;;;;;;;5.97;3.85;;;;;;;;;;5016349;28;20448;-73
2021/08/11 03:41:01;;;;;;;11.63;6.85;;;;;;;;;;4998484;28;20018;-72
2021/08/11 03:43:27;;;;;;;6.40;4.28;;;;;;;;;;5016112;28;20048;-74
2021/08/11 03:45:52;;;;;;;7.43;4.07;;;;;;;;;;5015818;28;20040;-72
2021/08/11 03:48:17;;;;;;;7.82;4.72;;;;;;;;;;5015800;28;20053;-72
2021/08/11 03:50:43;;;;;;;6.75;4.35;;;;;;;;;;5014533;28;20018;-72
2021/08/11 03:53:10;;;;;;;8.07;4.45;;;;;;;;;;4998181;28;20390;-73
2021/08/11 03:55:35;;;;;;;12.27;5.07;;;;;;;;;;5015922;28;20021;-71
2021/08/11 03:58:01;;;;;;;11.43;5.03;;;;;;;;;;5015489;28;20014;-71
2021/08/11 04:00:27;;;;;;;6.68;4.18;;;;;;;;;;5015259;28;20017;-73
2021/08/11 04:02:52;;;;;;;8.00;4.53;;;;;;;;;;4997874;28;20065;-73
2021/08/11 04:05:18;;;;;;;9.95;4.43;;;;;;;;;;5015505;28;20021;-72
2021/08/11 04:07:43;;;;;;;13.23;5.72;;;;;;;;;;4997957;28;20022;-75
2021/08/11 04:10:10;;;;;;;12.32;5.00;;;;;;;;;;5015326;28;20763;-73
2021/08/11 04:12:35;;;;;;;14.15;5.25;;;;;;;;;;5015660;28;20028;-73
2021/08/11 04:15:01;;;;;;;10.13;4.82;;;;;;;;;;5015262;28;20097;-71
2021/08/11 04:17:26;;;;;;;9.23;4.43;;;;;;;;;;5015453;28;20025;-72
2021/08/11 04:19:52;;;;;;;8.73;4.78;;;;;;;;;;5015175;28;20018;-72
2021/08/11 04:22:17;;;;;;;16.60;5.53;;;;;;;;;;5015164;28;20105;-72
2021/08/11 04:24:42;;;;;;;10.88;6.07;;;;;;;;;;5015138;28;20022;-73
2021/08/11 04:27:08;;;;;;;10.88;4.72;;;;;;;;;;5015409;28;20014;-72
2021/08/11 04:29:33;;;;;;;7.50;4.38;;;;;;;;;;5015156;28;20104;-72
2021/08/11 04:31:59;;;;;;;7.53;4.28;;;;;;;;;;5015054;28;20647;-73
2021/08/11 04:34:24;;;;;;;7.07;4.32;;;;;;;;;;5015023;28;20018;-74
2021/08/11 04:36:49;;;;;;;11.15;4.85;;;;;;;;;;5014760;28;20068;-72
2021/08/11 04:39:15;;;;;;;11.02;4.75;;;;;;;;;;5015039;28;20025;-73
2021/08/11 04:41:40;;;;;;;15.80;5.55;;;;;;;;;;5014857;28;20121;-73
2021/08/11 04:44:10;;;;;;;9.63;4.53;;;;;;;;;;5014586;28;20434;-74
2021/08/11 04:46:37;;;;;;;13.32;4.88;;;;;;;;;;5015001;28;20030;-73
2021/08/11 04:49:02;;;;;;;7.63;4.75;;;;;;;;;;5014516;28;20474;-72
2021/08/11 04:51:28;;;;;;;16.45;3.90;;;;;;;;;;5014756;28;20175;-72
2021/08/11 04:53:53;;;;;;;9.27;4.32;;;;;;;;;;5014438;28;20018;-71
2021/08/11 04:56:19;;;;;;;6.60;3.20;;;;;;;;;;5014335;28;20103;-72
2021/08/11 04:58:44;;;;;;;7.88;3.80;;;;;;;;;;5014414;28;20111;-72
2021/08/11 05:01:09;;;;;;;9.55;3.97;;;;;;;;;;5014499;28;20029;-71
2021/08/11 05:03:35;;;;;;;9.60;3.83;;;;;;;;;;4996780;28;20045;-71
2021/08/11 05:06:02;;;;;;;10.18;3.58;;;;;;;;;;4996704;28;20026;-71
2021/08/11 05:08:27;;;;;;;6.40;4.00;;;;;;;;;;5014277;28;20029;-73
2021/08/11 05:10:52;;;;;;;8.05;3.42;;;;;;;;;;5013975;28;20018;-72
2021/08/11 05:13:18;;;;;;;7.05;3.85;;;;;;;;;;5014589;28;20022;-74
2021/08/11 05:15:43;;;;;;;8.13;3.75;;;;;;;;;;5014232;28;20037;-74
2021/08/11 05:18:09;;;;;;;5.78;3.67;;;;;;;;;;5014198;28;20243;-71
2021/08/11 05:20:34;;;;;;;7.00;3.22;;;;;;;;;;5013998;28;20014;-73
2021/08/11 05:22:59;;;;;;;8.10;3.97;;;;;;;;;;5013873;28;20542;-76
2021/08/11 05:25:25;;;;;;;24.52;4.78;;;;;;;;;;5014197;28;20018;-72
2021/08/11 05:27:50;;;;;;;11.02;3.47;;;;;;;;;;5014237;28;20017;-74
2021/08/11 05:30:16;;;;;;;14.60;4.35;;;;;;;;;;5013821;28;20028;-75
2021/08/11 05:32:41;;;;;;;14.88;3.88;;;;;;;;;;4999008;28;20026;-73
2021/08/11 05:35:07;;;;;;;8.32;3.58;;;;;;;;;;5006611;28;20014;-74
2021/08/11 05:37:33;;;;;;;17.45;4.20;;;;;;;;;;5009748;28;20430;-73
2021/08/11 05:39:58;;;;;;;20.48;4.45;;;;;;;;;;4961098;28;20032;-74
2021/08/11 05:42:23;;;;;;;8.27;3.80;;;;;;;;;;4994496;28;20030;-72
2021/08/11 05:44:50;;;;;;;17.58;4.60;;;;;;;;;;4961278;28;20113;-73
2021/08/11 05:47:16;;;;;;;17.45;3.58;;;;;;;;;;4994109;28;20027;-73
2021/08/11 05:49:41;;;;;;;13.02;4.60;;;;;;;;;;4994066;28;20081;-74
2021/08/11 05:52:07;;;;;;;9.75;3.67;;;;;;;;;;4993897;28;20052;-74
2021/08/11 05:54:35;;;;;;;21.45;4.75;;;;;;;;;;4994098;28;20018;-74
2021/08/11 05:57:01;;;;;;;11.02;4.65;;;;;;;;;;4998972;28;20014;-72
2021/08/11 05:59:26;;;;;;;14.15;4.22;;;;;;;;;;4996262;28;20052;-73
2021/08/11 06:01:52;;;;;;;26.33;4.53;;;;;;;;;;5002531;28;20015;-76
2021/08/11 06:04:20;;;;;;;19.75;3.95;;;;;;;;;;5002788;28;20049;-74
2021/08/11 06:06:45;;;;;;;17.67;3.65;;;;;;;;;;5007580;28;20025;-72
2021/08/11 06:09:10;;;;;;;9.95;4.05;;;;;;;;;;5000069;28;20015;-73
2021/08/11 06:11:36;;;;;;;17.33;3.95;;;;;;;;;;5005935;28;20026;-73
2021/08/11 06:14:01;;;;;;;10.93;3.58;;;;;;;;;;4995670;28;20072;-72
2021/08/11 06:16:27;;;;;;;12.57;4.22;;;;;;;;;;5004221;28;20378;-71
2021/08/11 06:18:56;;;;;;;11.38;4.25;;;;;;;;;;4985578;28;20509;-70
2021/08/11 06:21:21;;;;;;;10.13;3.22;;;;;;;;;;4995396;28;20378;-73
2021/08/11 06:23:47;;;;;;;6.22;3.00;;;;;;;;;;4993455;28;20025;-70
2021/08/11 06:26:12;;;;;;;9.52;3.38;;;;;;;;;;4999350;28;20033;-69
2021/08/11 06:28:38;;;;;;;8.38;3.15;;;;;;;;;;5012267;28;20025;-72
2021/08/11 06:31:03;;;;;;;9.70;3.08;;;;;;;;;;4997281;28;20036;-72
2021/08/11 06:33:28;;;;;;;6.07;3.38;;;;;;;;;;4993593;28;20026;-72
2021/08/11 06:35:57;;;;;;;5.95;3.33;;;;;;;;;;5005461;28;20014;-74
2021/08/11 06:38:22;;;;;;;6.78;2.60;;;;;;;;;;5006050;28;20022;-73
2021/08/11 06:40:48;;;;;;;7.82;2.92;;;;;;;;;;5011182;28;20105;-72
2021/08/11 06:43:13;;;;;;;13.25;3.13;;;;;;;;;;5011125;28;20030;-72
2021/08/11 06:45:39;;;;;;;4.63;3.13;;;;;;;;;;4998645;28;20025;-74
2021/08/11 06:48:04;;;;;;;13.10;6.25;;;;;;;;;;5004795;28;20021;-72
2021/08/11 06:50:29;;;;;;;23.05;6.85;;;;;;;;;;5011779;28;20034;-73
2021/08/11 06:52:55;;;;;;;21.67;5.15;;;;;;;;;;5010239;28;20014;-74
2021/08/11 06:55:20;;;;;;;115.05;40.08;;;;;;;;;;4998968;28;20118;-71
2021/08/11 06:57:47;;;;;;;24.45;9.80;;;;;;;;;;5000930;28;20073;-71
2021/08/11 07:00:13;;;;;;;27.40;11.05;;;;;;;;;;5001945;28;20057;-70
2021/08/11 07:02:38;;;;;;;5.38;3.42;;;;;;;;;;4993252;28;20132;-69
2021/08/11 07:05:04;;;;;;;9.52;2.85;;;;;;;;;;4992486;28;20117;-68
2021/08/11 07:07:30;;;;;;;9.23;2.70;;;;;;;;;;4992575;28;20384;-70
2021/08/11 07:09:57;;;;;;;9.80;3.28;;;;;;;;;;4999402;28;20018;-69
2021/08/11 07:12:22;;;;;;;8.30;2.78;;;;;;;;;;5000554;28;20085;-71
2021/08/11 07:14:48;;;;;;;21.05;3.28;;;;;;;;;;4981326;28;20109;-72
2021/08/11 07:17:14;;;;;;;7.75;3.33;;;;;;;;;;4995649;28;20073;-70
2021/08/11 07:19:40;;;;;;;4.20;2.75;;;;;;;;;;5005209;28;20042;-72
2021/08/11 07:22:07;;;;;;;5.30;3.00;;;;;;;;;;4975280;28;20026;-70
2021/08/11 07:24:32;;;;;;;9.05;2.97;;;;;;;;;;5011837;28;20088;-71
2021/08/11 07:26:58;;;;;;;4.68;2.40;;;;;;;;;;5003497;28;20056;-72
2021/08/11 07:29:23;;;;;;;7.90;2.85;;;;;;;;;;4999728;28;20016;-72
2021/08/11 07:31:48;;;;;;;7.78;2.47;;;;;;;;;;4988753;28;20486;-73
2021/08/11 07:49:38;;;;;;;12.57;2.83;;;;;;;;;;4823514;29;20026;-71
2021/08/11 07:55:37;;;;;;;5.07;2.50;;;;;;;;;;4823262;29;20197;-73
2021/08/11 08:04:02;;;;;;;6.43;2.53;;;;;;;;;;4833374;29;20068;-73
2021/08/11 08:09:14;;;;;;;8.77;3.33;;;;;;;;;;4787253;30;20514;-71
2021/08/11 08:11:57;;;;;;;8.77;2.83;;;;;;;;;;4771517;30;20067;-71
2021/08/11 08:14:35;;;;;;;5.97;2.83;;;;;;;;;;4786033;30;20039;-71
2021/08/11 08:17:24;;;;;;;5.55;3.30;;;;;;;;;;4776085;29;20042;-72
2021/08/11 08:19:52;;;;;;;7.00;3.08;;;;;;;;;;4826646;29;20109;-71
2021/08/11 08:22:26;;;;;;;12.68;6.93;;;;;;;;;;4876326;29;20438;-71
2021/08/11 08:25:21;;;;;;;13.20;4.95;;;;;;;;;;4881260;29;20490;-71
2021/08/11 08:27:56;;;;;;;35.25;6.15;;;;;;;;;;4903558;29;20071;-72
2021/08/11 08:30:41;;;;;;;6.10;3.15;;;;;;;;;;4917715;29;20059;-72
2021/08/11 08:33:06;;;;;;;8.25;3.08;;;;;;;;;;4930669;29;20032;-70
2021/08/11 08:35:33;;;;;;;7.95;2.60;;;;;;;;;;4907126;29;20036;-70
2021/08/11 08:37:59;;;;;;;18.90;8.82;;;;;;;;;;4921017;29;20102;-70
2021/08/11 08:40:31;;;;;;;9.50;4.65;;;;;;;;;;4935916;28;20160;-72
2021/08/11 08:42:57;;;;;;;11.68;3.60;;;;;;;;;;4937339;29;20090;-71
2021/08/11 08:45:22;;;;;;;5.90;3.72;;;;;;;;;;4958322;28;20051;-71
2021/08/11 08:47:48;;;;;;;5.95;2.65;;;;;;;;;;4960133;28;20121;-70
2021/08/11 08:50:16;;;;;;;3.80;2.63;;;;;;;;;;4956037;28;20113;-69
2021/08/11 08:52:43;;;;;;;4.97;2.42;;;;;;;;;;4946835;29;20090;-66
2021/08/11 08:55:09;;;;;;;5.97;2.95;;;;;;;;;;4937209;29;20037;-67
2021/08/11 08:57:35;;;;;;;10.85;4.15;;;;;;;;;;4936790;28;20020;-67
2021/08/11 09:00:03;;;;;;;4.25;2.75;;;;;;;;;;4974607;28;20024;-68
2021/08/11 09:02:29;;;;;;;5.22;2.40;;;;;;;;;;4974989;28;20035;-68
2021/08/11 09:04:54;;;;;;;5.57;3.03;;;;;;;;;;4994040;28;20049;-68
2021/08/11 09:07:20;;;;;;;11.85;3.75;;;;;;;;;;4992579;28;20022;-68
2021/08/11 09:09:46;;;;;;;8.00;2.95;;;;;;;;;;4993772;28;20064;-68
2021/08/11 09:12:13;;;;;;;9.48;3.10;;;;;;;;;;4994011;28;20073;-68
2021/08/11 09:14:39;;;;;;;7.70;3.00;;;;;;;;;;4993329;28;20026;-67
2021/08/11 09:17:06;;;;;;;4.93;2.55;;;;;;;;;;4994249;28;20072;-67
2021/08/11 09:19:41;;;;;;;5.03;2.42;;;;;;;;;;4999028;28;20018;-68
2021/08/11 09:22:08;;;;;;;6.78;2.90;;;;;;;;;;4972337;28;20027;-68
2021/08/11 09:24:36;;;;;;;4.32;2.70;;;;;;;;;;4997451;28;20033;-68
2021/08/11 09:27:08;;;;;;;5.45;3.00;;;;;;;;;;5013661;28;20025;-68
2021/08/11 09:29:34;;;;;;;5.82;3.17;;;;;;;;;;5013282;28;20018;-68
2021/08/11 09:32:06;;;;;;;7.03;3.17;;;;;;;;;;5013570;28;20022;-69
2021/08/11 09:34:41;;;;;;;6.20;2.30;;;;;;;;;;5013107;28;20014;-68
2021/08/11 09:37:07;;;;;;;5.85;3.42;;;;;;;;;;5010107;28;20025;-67
2021/08/11 09:39:37;;;;;;;7.60;3.67;;;;;;;;;;5006504;28;20034;-68
2021/08/11 09:42:04;;;;;;;5.50;2.70;;;;;;;;;;4993524;28;20396;-67
2021/08/11 09:44:30;;;;;;;4.63;2.63;;;;;;;;;;4993665;28;20018;-67
2021/08/11 09:47:09;;;;;;;4.38;3.05;;;;;;;;;;4993661;28;20562;-69
2021/08/11 09:49:35;;;;;;;4.45;3.33;;;;;;;;;;4992369;28;20018;-68
2021/08/11 09:52:01;;;;;;;6.78;3.28;;;;;;;;;;4993935;28;20022;-68
2021/08/11 09:54:28;;;;;;;4.85;2.47;;;;;;;;;;4993476;28;20022;-68
2021/08/11 09:56:53;;;;;;;4.13;2.38;;;;;;;;;;4993262;28;20023;-68
2021/08/11 09:59:18;;;;;;;3.75;2.55;;;;;;;;;;4993482;28;20387;-69
2021/08/11 10:01:44;;;;;;;4.82;2.20;;;;;;;;;;4993657;28;20037;-70
2021/08/11 10:04:11;;;;;;;7.15;2.50;;;;;;;;;;4992536;28;20474;-68
2021/08/11 10:06:37;;;;;;;4.20;2.22;;;;;;;;;;4993808;28;20483;-70
2021/08/11 10:09:19;;;;;;;6.90;3.13;;;;;;;;;;5005224;28;20402;-70
2021/08/11 10:11:53;;;;;;;3.30;2.58;;;;;;;;;;5010909;28;20134;-70
2021/08/11 10:14:21;;;;;;;5.53;2.20;;;;;;;;;;5003232;28;20010;-69
2021/08/11 10:16:47;;;;;;;4.35;2.28;;;;;;;;;;4992790;28;20022;-69
2021/08/11 10:19:12;;;;;;;6.82;2.53;;;;;;;;;;4992337;28;20015;-70
2021/08/11 10:21:53;;;;;;;4.30;2.10;;;;;;;;;;4992657;28;20018;-70
2021/08/11 10:24:18;;;;;;;3.30;2.00;;;;;;;;;;4992419;28;20022;-69
2021/08/11 10:26:48;;;;;;;2.85;2.05;;;;;;;;;;4995827;28;20472;-69
2021/08/11 10:29:14;;;;;;;5.97;2.38;;;;;;;;;;4992714;28;20026;-68
2021/08/11 10:31:40;;;;;;;3.63;2.03;;;;;;;;;;4992576;28;20045;-70
2021/08/11 10:34:07;;;;;;;3.55;2.45;;;;;;;;;;4992145;28;20022;-70
2021/08/11 10:36:32;;;;;;;4.63;2.20;;;;;;;;;;4999725;28;20331;-69
2021/08/11 10:39:00;;;;;;;2.97;2.05;;;;;;;;;;4992655;28;20022;-69
2021/08/11 10:41:27;;;;;;;4.10;2.45;;;;;;;;;;4991244;28;20050;-68
2021/08/11 10:43:52;;;;;;;6.72;2.80;;;;;;;;;;4992605;28;20018;-73
2021/08/11 10:46:19;;;;;;;4.18;2.50;;;;;;;;;;4997379;28;20581;-72
2021/08/11 10:48:58;;;;;;;7.38;2.65;;;;;;;;;;4994916;28;20018;-71
2021/08/11 10:51:42;;;;;;;5.78;2.53;;;;;;;;;;5008274;28;20025;-71
2021/08/11 10:54:08;;;;;;;3.03;2.50;;;;;;;;;;5004980;28;20018;-71
2021/08/11 10:56:52;;;;;;;59.28;5.22;;;;;;;;;;4985404;28;20467;-71
2021/08/11 10:59:32;;;;;;;5.35;2.28;;;;;;;;;;5003666;28;20021;-72
2021/08/11 11:01:58;;;;;;;5.10;2.85;;;;;;;;;;5006758;28;21613;-73
2021/08/11 11:04:46;;;;;;;4.63;2.45;;;;;;;;;;5016064;28;20142;-72
2021/08/11 11:07:13;;;;;;;9.77;2.88;;;;;;;;;;5009061;28;20402;-72
2021/08/11 11:09:40;;;;;;;6.82;2.25;;;;;;;;;;4998134;28;20014;-71
2021/08/11 11:12:24;;;;;;;10.05;2.85;;;;;;;;;;5015009;28;20107;-73
2021/08/11 11:14:57;;;;;;;6.20;2.40;;;;;;;;;;5013692;28;20049;-71
2021/08/11 11:17:24;;;;;;;6.35;2.22;;;;;;;;;;5004421;28;20490;-72
2021/08/11 11:20:14;;;;;;;3.67;2.20;;;;;;;;;;4978658;28;20054;-72
2021/08/11 11:22:40;;;;;;;4.70;2.47;;;;;;;;;;4994790;28;20037;-67
2021/08/11 11:25:09;;;;;;;5.82;2.67;;;;;;;;;;4993903;28;20014;-67
2021/08/11 11:27:44;;;;;;;3.65;2.05;;;;;;;;;;5010979;28;20080;-66
2021/08/11 11:30:13;;;;;;;5.85;2.20;;;;;;;;;;5015175;28;20026;-66
2021/08/11 11:32:39;;;;;;;2.75;2.10;;;;;;;;;;4997792;28;20029;-67
2021/08/11 11:35:23;;;;;;;6.95;2.30;;;;;;;;;;5015316;28;20026;-67
2021/08/11 11:38:07;;;;;;;5.00;2.28;;;;;;;;;;5015773;28;20088;-66
2021/08/11 11:40:33;;;;;;;4.85;2.20;;;;;;;;;;5015215;28;20038;-74
2021/08/11 11:43:17;;;;;;;7.43;3.60;;;;;;;;;;5015471;28;20072;-76
2021/08/11 11:45:43;;;;;;;6.13;2.35;;;;;;;;;;4997607;28;20030;-76
2021/08/11 11:48:09;;;;;;;6.43;2.70;;;;;;;;;;5015029;28;20018;-75
2021/08/11 11:50:42;;;;;;;6.10;2.67;;;;;;;;;;4998286;28;20426;-76
2021/08/11 11:53:10;;;;;;;7.18;2.55;;;;;;;;;;4997190;28;20014;-76
2021/08/11 11:55:37;;;;;;;5.82;2.38;;;;;;;;;;5015234;28;20032;-75
2021/08/11 11:58:07;;;;;;;3.17;2.63;;;;;;;;;;5013419;28;20364;-76
2021/08/11 12:00:32;;;;;;;11.18;3.00;;;;;;;;;;5015123;28;20045;-77
2021/08/11 12:02:57;;;;;;;7.78;2.70;;;;;;;;;;4997843;28;20049;-78
2021/08/11 12:05:23;;;;;;;5.60;2.60;;;;;;;;;;5015138;28;20022;-74
2021/08/11 12:07:49;;;;;;;4.63;2.63;;;;;;;;;;5013242;28;20589;-73
2021/08/11 12:10:28;;;;;;;5.57;2.50;;;;;;;;;;4994752;28;20474;-71
2021/08/11 12:13:04;;;;;;;5.40;2.65;;;;;;;;;;5005055;28;20756;-73
2021/08/11 12:15:31;;;;;;;7.55;2.60;;;;;;;;;;4997591;28;20025;-72
2021/08/11 12:18:00;;;;;;;6.63;2.42;;;;;;;;;;5015052;28;20025;-73
2021/08/11 12:20:30;;;;;;;5.03;3.08;;;;;;;;;;4997349;28;20364;-73
2021/08/11 12:22:56;;;;;;;4.70;2.25;;;;;;;;;;5014698;28;20037;-71
2021/08/11 12:25:25;;;;;;;2.97;2.28;;;;;;;;;;5014811;28;20097;-75
2021/08/11 12:28:09;;;;;;;3.97;2.30;;;;;;;;;;4993074;28;20152;-74
2021/08/11 12:30:35;;;;;;;4.15;2.08;;;;;;;;;;4992155;28;20099;-72
2021/08/11 12:33:01;;;;;;;2.45;2.13;;;;;;;;;;4990473;28;20026;-72
2021/08/11 12:35:27;;;;;;;3.95;2.22;;;;;;;;;;5004324;28;20045;-78
2021/08/11 12:37:52;;;;;;;4.07;1.80;;;;;;;;;;5003733;28;20052;-73
2021/08/11 12:40:24;;;;;;;5.63;1.98;;;;;;;;;;5001096;28;20471;-75
2021/08/11 12:42:53;;;;;;;3.53;2.22;;;;;;;;;;4994613;28;20518;-76
2021/08/11 12:45:19;;;;;;;3.13;2.08;;;;;;;;;;4957685;28;20081;-75
2021/08/11 12:47:44;;;;;;;4.07;2.20;;;;;;;;;;4993631;28;20014;-74
2021/08/11 12:50:16;;;;;;;5.10;2.22;;;;;;;;;;4994813;28;20157;-73
2021/08/11 12:52:54;;;;;;;5.63;2.17;;;;;;;;;;4981989;28;20479;-74
2021/08/11 12:55:33;;;;;;;6.50;2.17;;;;;;;;;;4986329;28;20026;-74
2021/08/11 12:57:58;;;;;;;;;;;;;;;;;;4995231;28;20033;-75
2021/08/11 13:00:42;;;;;;;2.83;2.00;;;;;;;;;;4994728;28;19910;-74
2021/08/11 13:03:10;;;;;;;2.22;1.95;;;;;;;;;;5013162;28;20042;-75
2021/08/11 13:05:36;;;;;;;;;;;;;;;;;;5008611;28;20041;-75
2021/08/11 13:08:03;;;;;;;6.23;1.77;;;;;;;;;;5003938;28;19913;-76
2021/08/11 13:10:30;;;;;;;3.28;1.80;;;;;;;;;;4980610;28;20030;-75
2021/08/11 13:12:56;;;;;;;2.17;1.70;;;;;;;;;;4995698;28;20109;-75
2021/08/11 13:15:30;;;;;;;6.00;2.05;;;;;;;;;;4985605;28;20145;-75
2021/08/11 13:17:57;;;;;;;5.10;2.20;;;;;;;;;;4983204;28;20019;-76
2021/08/11 13:20:27;;;;;;;3.63;2.38;;;;;;;;;;4993968;28;20886;-75
2021/08/11 13:22:54;;;;;;;3.13;1.98;;;;;;;;;;4999467;28;20030;-76
2021/08/11 13:25:20;;;;;;;6.95;1.83;;;;;;;;;;4963506;28;20034;-75
2021/08/11 13:27:47;;;;;;;4.47;2.00;;;;;;;;;;5010458;28;20041;-73
2021/08/11 13:30:14;;;;;;;5.07;1.83;;;;;;;;;;4997839;28;20027;-73
2021/08/11 13:32:39;;;;;;;3.72;1.75;;;;;;;;;;5006909;28;20026;-75
2021/08/11 13:35:05;;;;;;;4.60;1.77;;;;;;;;;;4992413;28;20022;-73
2021/08/11 13:37:30;;;;;;;4.63;2.08;;;;;;;;;;4991639;28;20022;-74
2021/08/11 13:39:56;;;;;;;6.35;3.38;;;;;;;;;;5001149;28;20386;-75
2021/08/11 13:42:23;;;;;;;2.38;1.88;;;;;;;;;;4979692;28;20462;-75
2021/08/11 13:44:49;;;;;;;3.33;1.67;;;;;;;;;;5005630;28;20382;-75
2021/08/11 13:47:15;;;;;;;3.17;2.00;;;;;;;;;;4987118;28;20088;-74
2021/08/11 13:49:40;;;;;;;11.93;2.17;;;;;;;;;;4993413;28;20545;-75
2021/08/11 13:52:05;;;;;;;5.68;2.00;;;;;;;;;;5009418;28;20030;-73
2021/08/11 13:54:31;;;;;;;2.65;1.95;;;;;;;;;;5001590;28;20026;-74
2021/08/11 13:56:56;;;;;;;6.05;1.95;;;;;;;;;;4999797;28;20029;-75
2021/08/11 13:59:21;;;;;;;2.70;2.17;;;;;;;;;;4993700;28;20475;-74
2021/08/11 14:01:47;;;;;;;3.40;2.30;;;;;;;;;;4988888;28;20030;-76
2021/08/11 14:04:13;;;;;;;6.95;2.00;;;;;;;;;;4976124;28;20280;-74
2021/08/11 14:06:38;;;;;;;6.97;2.25;;;;;;;;;;4960321;28;20033;-76
2021/08/11 14:09:04;;;;;;;8.43;2.42;;;;;;;;;;4975800;28;20018;-75
2021/08/11 14:11:29;;;;;;;7.05;2.35;;;;;;;;;;4993853;28;20038;-72
2021/08/11 14:13:55;;;;;;;4.13;2.13;;;;;;;;;;4993601;28;20077;-75
2021/08/11 14:16:21;;;;;;;5.28;2.63;;;;;;;;;;5002077;28;20029;-72
2021/08/11 14:18:47;;;;;;;5.70;2.53;;;;;;;;;;4987442;28;20027;-66
2021/08/11 14:21:12;;;;;;;5.22;2.65;;;;;;;;;;5001727;28;20028;-66
2021/08/11 14:23:37;;;;;;;5.82;2.30;;;;;;;;;;4999447;28;20482;-68
2021/08/11 14:26:03;;;;;;;5.10;2.50;;;;;;;;;;5001656;28;20026;-73
2021/08/11 14:28:28;;;;;;;6.00;2.55;;;;;;;;;;4986758;28;20030;-67
2021/08/11 14:30:53;;;;;;;7.15;2.80;;;;;;;;;;5007014;28;20069;-66
2021/08/11 14:33:19;;;;;;;6.15;2.75;;;;;;;;;;5012691;28;20084;-66
2021/08/11 14:35:44;;;;;;;4.78;2.30;;;;;;;;;;4978751;28;20017;-66
2021/08/11 14:38:10;;;;;;;4.43;2.30;;;;;;;;;;5012611;28;20475;-66
2021/08/11 14:40:35;;;;;;;3.75;2.70;;;;;;;;;;5012831;28;20022;-66
2021/08/11 14:43:00;;;;;;;3.50;2.80;;;;;;;;;;5012518;28;20018;-67
2021/08/11 14:45:26;;;;;;;5.50;2.63;;;;;;;;;;5012919;28;20083;-66
2021/08/11 14:47:51;;;;;;;4.47;2.33;;;;;;;;;;5012940;28;20034;-66
2021/08/11 14:50:19;;;;;;;4.63;2.47;;;;;;;;;;5012652;28;20359;-66
2021/08/11 14:52:45;;;;;;;6.47;2.83;;;;;;;;;;5012896;28;20018;-67
2021/08/11 14:55:11;;;;;;;2.30;2.10;;;;;;;;;;5012603;28;20028;-66
2021/08/11 14:57:36;;;;;;;2.45;2.08;;;;;;;;;;5012673;28;20022;-67
2021/08/11 15:00:02;;;;;;;5.28;2.30;;;;;;;;;;5012706;28;20018;-67
2021/08/11 15:02:28;;;;;;;6.18;2.47;;;;;;;;;;5012159;28;20125;-67
2021/08/11 15:04:53;;;;;;;4.63;2.85;;;;;;;;;;4994996;28;20030;-67
2021/08/11 15:07:18;;;;;;;3.83;2.20;;;;;;;;;;5012661;28;20030;-67
2021/08/11 15:09:44;;;;;;;4.85;2.50;;;;;;;;;;4995055;28;20018;-66
2021/08/11 15:12:11;;;;;;;3.20;2.40;;;;;;;;;;5012332;28;20048;-67